Placido de Castro Airport Rio Branco BR
ICAO: SBRB
IATA: RBR
Category: Medium
Scheduled Services: Yes

Elevation: 633 ft
TransAlt. 3000 ft.

Airport Communications:
RIO BRANCO APP:119.9
RIO BRANCO TWR:118.7

SBRB Zoom In..

Runways:

(A) RW 06 length 7080 ft width 148 ft
ILS 109.30 / hdg 65

(B) RW 24 length 7080 ft width 148 ft
---- / hdg 245

Location; SBRB
Day. 11 / Time. 12.00 Zulu
* QNH: 1012
* Temperature: 22° c. 71.6°f.
* Wind from: 000° Speed 00 kn.
Dewpoint: 22° c.
Visibility: 8000 m.
No significant clouds are observed below 5000 ft.

SBRB 111200Z 00000KT 8000 NSC 22/22 Q1012

Going to: --> -->


Wind - Calm.

 
 
jpsmedia worldairports.se 2020   terms of use